CYZFCYFS

Guest
Details From CYZF - Yellowknife
To CYFS - Fort Simpson
Flight Number -
Tags Decoded
Created
Modified
Stats Distance 311 nm / 577 km
Max Altitude 10,000 ft / 3,048 m
Waypoints 4
Social Downloads 1
Likes 0
Share VATSIM

Download

Looking for another format? Having issues loading an existing format? Contact us
Advertisement - Login to hide

Notes

Decoded

Route

CYZF CYFR CYHY CYFS

ID Type Via Altitude Latitude Longitude Leg Dist Tot Dist Heading (true) Name
O CYZF APT - 0 ft / 0 m 62.47133˚ -114.45350˚ - 0 nm - -
CYFR APT - 10,000 ft / 3,048 m 61.18497˚ -113.69714˚ 80 nm 80 nm 164° / 165° -
CYHY APT - 10,000 ft / 3,048 m 60.83944˚ -115.78944˚ 64 nm 144 nm 252° / 250° -
O CYFS APT - 0 ft / 0 m 61.76778˚ -121.24371˚ 166 nm 311 nm 292° / 287° -

Altitude Profile

Advertisement - Login to hide

Weather


0- 5 10 15 20 25 30 35+ Temperature / ° C

Clouds and Precipitation
Forecast for 2018-05-27 18:00 UTC. Updated 5 hours ago

Ground ~20,000 ft ~40,000 ft Winds

CYZF

Details ICAO CYZF (YZF)
Name YELLOWKNIFE
Region Canada
Timezone America/Yellowknife (UTC-6.0)
Stats Elevation 675 ft / 206 m (AMSL)
Location 62.465666° -114.441417°
Runways 2
Magnetic Variation 16.451° E

METAR

CYZF 272200Z 20008KT 130V210 15SM FEW055TCU FEW140 BKN240 14/03 A2977 RMK TCU1AC1CI6 AC TR TCU DIST N AND SE SLP091 DENSITY ALT 900FT

Decode

TAF

TAF CYZF 271741Z 2718/2818 15010KT P6SM SCT050 BKN080 FM280000 15010KT P6SM SCT020 BKN080 TEMPO 2800/2804 P6SM -SHRA VCTS FEW020CB FM280600 VRB03KT P6SM FEW020 PROB30 2808/2813 1SM BR RMK NXT FCST BY 280000Z

Decode

Departure Runways

ID Width Length Bearing (true) Bearing (mag) Surface Threshold Offset Overrun Length
09 150 ft / 46 m 4,902 ft / 1,494 m 116.52° 100.07° Asphalt 0 ft / 0 m 0 ft / 0 m
15 150 ft / 46 m 7,441 ft / 2,268 m 175.66° 159.21° Asphalt 0 ft / 0 m 0 ft / 0 m
27 150 ft / 46 m 4,902 ft / 1,494 m 296.54° 280.09° Asphalt 0 ft / 0 m 0 ft / 0 m
33 150 ft / 46 m 7,441 ft / 2,268 m 355.67° 339.22° Asphalt 0 ft / 0 m 0 ft / 0 m

CYFS

Details ICAO CYFS (YFS)
Name FORT SIMPSON
Region Canada
Timezone America/Yellowknife (UTC-6.0)
Stats Elevation 555 ft / 169 m (AMSL)
Location 61.760281° -121.236665°
Runways 1
Magnetic Variation 19.019° E

METAR

CYFS 272200Z 29003KT 250V010 15SM FEW060CB SCT095 BKN210 15/07 A2974 RMK CB1AC2CI2 CB W SLP078 DENSITY ALT 1000FT

Decode

TAF

TAF TAF CYFS 271741Z 2718/2806 33007KT P6SM SCT010 BKN080 TEMPO 2718/2720 BKN010 OVC080 FM272000 33007KT P6SM OVC080 TEMPO 2720/2806 P6SM -SHRA BKN040 OVC080 PROB40 2720/2802 4SM TSRA BKN020CB RMK NXT FCST BY 280000Z

Decode

Destination Runways

ID Width Length Bearing (true) Bearing (mag) Surface Threshold Offset Overrun Length
13 150 ft / 46 m 5,986 ft / 1,825 m 156.01° 136.99° Asphalt 0 ft / 0 m 0 ft / 0 m
31 150 ft / 46 m 5,986 ft / 1,825 m 336.02° 317.00° Asphalt 0 ft / 0 m 0 ft / 0 m

Popular Alternatives